»·PEaware :: JNY60 KRNO-KPAE

JNY60 :: KRNO-KPAE

FLIGHT INFORMATION

Flight Status: Arrived
Operator: Unknown
More flights by this operator :: More flights under this callsign
Pilot: Max W. (2591)
Aircraft: BOEING 727-200
(B722)
More flights by this aircraft type
Origin: KRNO Reno/Tahoe Intl
United States
Destination: KPAE Paine Field/Snohomish Co.
United States
More flights between these airports :: More routes between these airports
Route: +FMG8 FMG J5 LKV J67 BTG OLM2
File this flight plan on PilotEdge
Remarks:
Altitude:
(Current/Filed)
32,000ft
Speed:
(Current/Filed)
500kts
Departed: 01-Oct-19 04:54 PM
Arrived: 01-Oct-19 06:19 PM
Distance/Time
Traveled:
516nm/1:25
Distance/Time
To Go:
Arrived

Flight Plot

Page will automatically refresh every two minutes.

Flight plan parsing failed; only flown route is shown


Map Options




Map Legend


Flown Route
Filed Route
Departure Airport
Arrival Airport
Navaid (VOR, NDB)
Fix

Horizontal Profiles

Position Reports

Time Latitude Longitude Heading Altitude Ground
Speed
01-Oct-19 15:50 39.501177 -119.764587 110 4421ft 0kts
01-Oct-19 15:51 39.501177 -119.764587 110 4421ft 0kts
01-Oct-19 15:52 39.501177 -119.764587 110 4421ft 0kts
01-Oct-19 15:53 39.501177 -119.764587 110 4421ft 0kts
01-Oct-19 15:54 39.501177 -119.764587 110 4421ft 0kts
01-Oct-19 15:55 39.501177 -119.764587 110 4421ft 0kts
01-Oct-19 15:56 39.501177 -119.764587 110 4421ft 0kts
01-Oct-19 15:57 39.501177 -119.764587 110 4421ft 0kts
01-Oct-19 15:58 39.501177 -119.764587 110 4421ft 0kts
01-Oct-19 15:59 39.501177 -119.764587 110 4421ft 0kts
01-Oct-19 16:00 39.501177 -119.764587 110 4421ft 0kts
01-Oct-19 16:01 39.501177 -119.764587 110 4421ft 0kts
01-Oct-19 16:02 39.501177 -119.764587 110 4421ft 0kts
01-Oct-19 16:04 39.501177 -119.764587 110 4421ft 0kts
01-Oct-19 16:05 39.501177 -119.764587 110 4421ft 0kts
01-Oct-19 16:06 39.501177 -119.764587 110 4421ft 0kts
01-Oct-19 16:07 39.501177 -119.764587 110 4421ft 0kts
01-Oct-19 16:08 39.501177 -119.764587 110 4421ft 0kts
01-Oct-19 16:09 39.501177 -119.764587 110 4421ft 0kts
01-Oct-19 16:10 39.501177 -119.764587 110 4421ft 0kts
01-Oct-19 16:11 39.501177 -119.764587 110 4421ft 0kts
01-Oct-19 16:12 39.501177 -119.764587 110 4421ft 0kts
01-Oct-19 16:13 39.501177 -119.764587 110 4421ft 0kts
01-Oct-19 16:14 39.501177 -119.764587 110 4421ft 0kts
01-Oct-19 16:15 39.501177 -119.764587 110 4421ft 0kts
01-Oct-19 16:16 39.501177 -119.764587 110 4421ft 0kts
01-Oct-19 16:17 39.501177 -119.764587 110 4421ft 0kts
01-Oct-19 16:18 39.501177 -119.764587 110 4421ft 0kts
01-Oct-19 16:19 39.501177 -119.764587 110 4421ft 0kts
01-Oct-19 16:20 39.501177 -119.764587 110 4421ft 0kts
01-Oct-19 16:21 39.501177 -119.764587 110 4421ft 0kts
01-Oct-19 16:22 39.501177 -119.764587 110 4421ft 0kts
01-Oct-19 16:23 39.501177 -119.764587 110 4421ft 0kts
01-Oct-19 16:23 39.501177 -119.764587 110 4421ft 0kts
01-Oct-19 16:25 39.501177 -119.764587 110 4421ft 0kts
01-Oct-19 16:26 39.501177 -119.764587 110 4421ft 0kts
01-Oct-19 16:26 39.501177 -119.764587 110 4421ft 0kts
01-Oct-19 16:28 39.501177 -119.764587 110 4421ft 0kts
01-Oct-19 16:28 39.501177 -119.764587 110 4421ft 0kts
01-Oct-19 16:29 39.501177 -119.764587 110 4421ft 0kts
01-Oct-19 16:31 39.501177 -119.764587 110 4421ft 0kts
01-Oct-19 16:31 39.501177 -119.764587 110 4421ft 0kts
01-Oct-19 16:32 39.501177 -119.764587 110 4421ft 0kts
01-Oct-19 16:33 39.501177 -119.764587 110 4421ft 0kts
01-Oct-19 16:34 39.501177 -119.764587 110 4421ft 0kts
01-Oct-19 16:35 39.501177 -119.764587 110 4421ft 0kts
01-Oct-19 16:36 39.501176 -119.764936 63 4421ft 2kts
01-Oct-19 16:37 39.500672 -119.765187 358 4421ft 0kts
01-Oct-19 16:38 39.500655 -119.765187 359 4421ft 0kts
01-Oct-19 16:39 39.500655 -119.765187 359 4421ft 0kts
01-Oct-19 16:40 39.500655 -119.765187 359 4421ft 0kts
01-Oct-19 16:41 39.500655 -119.765187 359 4421ft 0kts
01-Oct-19 16:42 39.500656 -119.765187 359 4421ft 0kts
01-Oct-19 16:43 39.500656 -119.765187 359 4421ft 0kts
01-Oct-19 16:44 39.500656 -119.765187 359 4421ft 0kts
01-Oct-19 16:45 39.500656 -119.765187 359 4421ft 0kts
01-Oct-19 16:46 39.500656 -119.765187 359 4421ft 0kts
01-Oct-19 16:47 39.500656 -119.765187 359 4421ft 0kts
01-Oct-19 16:48 39.500661 -119.765187 359 4421ft 0kts
01-Oct-19 16:49 39.506251 -119.765778 359 4421ft 30kts
01-Oct-19 16:50 39.511421 -119.765114 1 4421ft 16kts
01-Oct-19 16:51 39.513738 -119.768020 270 4421ft 0kts
01-Oct-19 16:52 39.513738 -119.768326 270 4421ft 10kts
01-Oct-19 16:53 39.493077 -119.769390 180 4641ft 191kts
01-Oct-19 16:54 39.437685 -119.769428 155 8151ft 221kts
01-Oct-19 16:55 39.447338 -119.713076 21 11580ft 230kts
01-Oct-19 16:56 39.519213 -119.681644 9 13265ft 310kts
01-Oct-19 16:57 39.597581 -119.716972 318 16126ft 328kts
01-Oct-19 16:58 39.675662 -119.782117 335 19040ft 351kts
01-Oct-19 16:59 39.776080 -119.818742 343 22158ft 354kts
01-Oct-19 17:00 39.873526 -119.844829 344 24389ft 367kts
01-Oct-19 17:01 39.974010 -119.869789 345 26531ft 372kts
01-Oct-19 17:02 40.076294 -119.894836 345 28349ft 377kts
01-Oct-19 17:03 40.175431 -119.918714 345 29898ft 382kts
01-Oct-19 17:04 40.280187 -119.944242 345 31344ft 387kts
01-Oct-19 17:05 40.386907 -119.970493 346 32107ft 404kts
01-Oct-19 17:06 40.501421 -119.998775 346 32106ft 434kts
01-Oct-19 17:07 40.623110 -120.028866 346 32103ft 457kts
01-Oct-19 17:08 40.749870 -120.060387 346 32095ft 464kts
01-Oct-19 17:09 40.875403 -120.091700 346 32093ft 458kts
01-Oct-19 17:10 41.000184 -120.123007 346 32093ft 456kts
01-Oct-19 17:11 41.118953 -120.152934 348 32103ft 454kts
01-Oct-19 17:12 41.242958 -120.183812 347 32103ft 454kts
01-Oct-19 17:13 41.367217 -120.215271 348 32102ft 454kts
01-Oct-19 17:14 41.491381 -120.246886 347 32099ft 454kts
01-Oct-19 17:15 41.615275 -120.278551 347 32097ft 454kts
01-Oct-19 17:16 41.739250 -120.310358 347 32095ft 453kts
01-Oct-19 17:17 41.863339 -120.342299 348 32107ft 453kts
01-Oct-19 17:18 41.986607 -120.374110 347 32118ft 452kts
01-Oct-19 17:19 42.105076 -120.404853 348 32119ft 452kts
01-Oct-19 17:20 42.228855 -120.436820 347 32131ft 454kts
01-Oct-19 17:21 42.353307 -120.469357 347 32128ft 457kts
01-Oct-19 17:22 42.478324 -120.502394 346 32123ft 457kts
01-Oct-19 17:23 42.591881 -120.577874 333 32124ft 456kts
01-Oct-19 17:24 42.700135 -120.655856 332 32123ft 457kts
01-Oct-19 17:25 42.811689 -120.739025 332 32124ft 458kts
01-Oct-19 17:26 42.924080 -120.821422 333 32122ft 458kts
01-Oct-19 17:27 43.036340 -120.903863 335 32117ft 459kts
01-Oct-19 17:28 43.145410 -120.983540 335 32154ft 460kts
01-Oct-19 17:29 43.258582 -121.066759 335 32169ft 463kts
01-Oct-19 17:30 43.373402 -121.144176 339 32169ft 460kts
01-Oct-19 17:31 43.491789 -121.213341 339 32165ft 464kts
01-Oct-19 17:32 43.611201 -121.283277 339 32163ft 467kts
01-Oct-19 17:33 43.731120 -121.353863 339 32161ft 468kts
01-Oct-19 17:34 43.851134 -121.424788 339 32159ft 469kts
01-Oct-19 17:35 43.971297 -121.496143 339 32157ft 469kts
01-Oct-19 17:36 44.090965 -121.567518 339 32155ft 469kts
01-Oct-19 17:37 44.205465 -121.634959 339 32169ft 470kts
01-Oct-19 17:38 44.320446 -121.705867 338 32167ft 463kts
01-Oct-19 17:39 44.438491 -121.777730 338 32171ft 460kts
01-Oct-19 17:40 44.555653 -121.848884 338 32173ft 459kts
01-Oct-19 17:41 44.672811 -121.920338 338 32171ft 461kts
01-Oct-19 17:42 44.790647 -121.992519 338 32172ft 462kts
01-Oct-19 17:43 44.908489 -122.065051 338 32169ft 463kts
01-Oct-19 17:44 45.026358 -122.137972 339 32165ft 464kts
01-Oct-19 17:45 45.137766 -122.206731 340 32181ft 466kts
01-Oct-19 17:46 45.257469 -122.280754 339 32180ft 472kts
01-Oct-19 17:47 45.378223 -122.356370 339 32176ft 475kts
01-Oct-19 17:48 45.499225 -122.432529 339 32174ft 476kts
01-Oct-19 17:49 45.619885 -122.508874 339 32168ft 470kts
01-Oct-19 17:50 45.737038 -122.583697 339 32168ft 453kts
01-Oct-19 17:51 45.854320 -122.624921 0 32173ft 431kts
01-Oct-19 17:52 45.972725 -122.646695 352 32177ft 441kts
01-Oct-19 17:53 46.091775 -122.678767 351 32178ft 468kts
01-Oct-19 17:54 46.207770 -122.707956 351 32186ft 469kts
01-Oct-19 17:55 46.335169 -122.740001 351 32185ft 465kts
01-Oct-19 17:56 46.463158 -122.772292 351 30935ft 461kts
01-Oct-19 17:57 46.590901 -122.804675 351 28744ft 490kts
01-Oct-19 17:58 46.725893 -122.838717 351 26238ft 495kts
01-Oct-19 17:59 46.861893 -122.873142 351 23717ft 498kts
01-Oct-19 18:00 46.999489 -122.905012 0 21166ft 501kts
01-Oct-19 18:01 47.116122 -122.818763 41 17236ft 497kts
01-Oct-19 18:02 47.198495 -122.657112 57 13020ft 477kts
01-Oct-19 18:03 47.263381 -122.498699 56 13001ft 440kts
01-Oct-19 18:04 47.358601 -122.406413 359 12993ft 428kts
01-Oct-19 18:05 47.476504 -122.413401 357 11926ft 413kts
01-Oct-19 18:06 47.571095 -122.418578 357 11002ft 300kts
01-Oct-19 18:07 47.651269 -122.422814 357 11004ft 279kts
01-Oct-19 18:08 47.728563 -122.426755 357 9892ft 288kts
01-Oct-19 18:09 47.807229 -122.429613 357 8597ft 279kts
01-Oct-19 18:10 47.888998 -122.431907 357 6307ft 278kts
01-Oct-19 18:11 47.951924 -122.432959 358 4354ft 206kts
01-Oct-19 18:12 48.009171 -122.433951 358 3000ft 195kts
01-Oct-19 18:13 48.054395 -122.400605 81 3039ft 232kts
01-Oct-19 18:14 48.043843 -122.319726 137 2921ft 181kts
01-Oct-19 18:15 48.003424 -122.289493 168 2158ft 135kts
01-Oct-19 18:16 47.964499 -122.286645 180 1365ft 137kts
01-Oct-19 18:17 47.926571 -122.285954 180 680ft 127kts
01-Oct-19 18:18 47.912887 -122.283958 89 573ft 0kts
01-Oct-19 18:19 47.912897 -122.281720 89 573ft 32kts
01-Oct-19 18:20 47.912085 -122.279649 178 573ft 3kts

Navigation Log

Ident Type
Flight plan parsing failed, navigation log unavailable